Página principal
METAR-TAF:

METAR-TAF

Aeroportos :

Djibouti, Djibouti

Aeroporto Internacional de Djibouti-Ambouli

latitude: 11-33N, longitude: 043-10E, altura: 49 m

Observação actual do tempo

O boletim foi feito há 6 horas e 17 minutos, às 09:00 UTC
Vento 10 kt de este
Temperatura 28°C
Humidade 55%
Pressão 1018 hPa
Visibilidade 10 km ou mais
Poucas nuvensa uma altura de 2000 ft

METAR: HDAM 160900Z 08010KT 9999 FEW020 28/18 Q1018

Hora: 18:17 (15:17 UTC)

Previsão

O boletim foi feito há 4 horas e 17 minutos, às 11:00 UTC
Previsão válida de 16 às 12 UTC a 17 às 12 UTC
Vento 10 kt de este
Visibilidade 10 km ou mais
Poucas nuvensa uma altura de 2300 ft
Tornando-se
de 16 às 15 UTC a 16 às 21 UTC
Vento 3 kt com direcção variável
Visibilidade 10 km ou mais
sem nuvens abaixo de 1500 metros e sem cumulonimbus
Tornando-se
de 17 às 00 UTC a 17 às 06 UTC
Vento kt de norte

TAF: HDAM 161100Z 1612/1712 08010KT 9999 FEW023 BECMG 1615/1621 VRB03KT CAVOK BECMG 1700/1706 00000KT

Observações e previsões do tempo de mais de 4000 aeroportos (mensagens METAR e TAF).

As estações disponíveis são os pontos amarelos e vermelhos sobre o mapa.

Mova o rato sobre o mapa para ver o nome da estação.

Depois clique no ponto para visualizar as observações e previsões meteorológicas.

Para alterar o mapa : clique nos botões verdes com uma cruz preta para aumentar o zoom; no botão verde com uma pitada de zoom; ou nas setas verdes para mapas adjacentes.


METAR-TAF: